sensor_id;sensor_type;location;lat;lon;timestamp;P1;durP1;ratioP1;P2;durP2;ratioP2
18376;SDS011;9315;52.624;13.544;2023-11-21T00:00:39;48.57;;;18.97;;
18376;SDS011;9315;52.624;13.544;2023-11-21T00:03:07;54.03;;;18.70;;
18376;SDS011;9315;52.624;13.544;2023-11-21T00:05:34;52.80;;;18.50;;
18376;SDS011;9315;52.624;13.544;2023-11-21T00:08:02;52.03;;;19.77;;
18376;SDS011;9315;52.624;13.544;2023-11-21T00:10:29;49.23;;;19.27;;
18376;SDS011;9315;52.624;13.544;2023-11-21T00:12:56;52.03;;;17.50;;
18376;SDS011;9315;52.624;13.544;2023-11-21T00:15:24;56.07;;;19.07;;
18376;SDS011;9315;52.624;13.544;2023-11-21T00:17:52;46.03;;;18.37;;
18376;SDS011;9315;52.624;13.544;2023-11-21T00:20:20;48.10;;;18.47;;
18376;SDS011;9315;52.624;13.544;2023-11-21T00:22:48;55.30;;;21.20;;
18376;SDS011;9315;52.624;13.544;2023-11-21T00:25:15;58.77;;;20.43;;
18376;SDS011;9315;52.624;13.544;2023-11-21T00:27:44;64.80;;;19.30;;
18376;SDS011;9315;52.624;13.544;2023-11-21T00:30:11;64.03;;;21.40;;
18376;SDS011;9315;52.624;13.544;2023-11-21T00:32:40;53.83;;;19.23;;
18376;SDS011;9315;52.624;13.544;2023-11-21T00:35:08;63.10;;;22.47;;
18376;SDS011;9315;52.624;13.544;2023-11-21T00:37:36;68.47;;;22.40;;
18376;SDS011;9315;52.624;13.544;2023-11-21T00:40:06;80.77;;;24.50;;
18376;SDS011;9315;52.624;13.544;2023-11-21T00:42:35;76.17;;;26.07;;
18376;SDS011;9315;52.624;13.544;2023-11-21T00:45:03;76.73;;;27.13;;
18376;SDS011;9315;52.624;13.544;2023-11-21T00:47:32;83.03;;;27.63;;
18376;SDS011;9315;52.624;13.544;2023-11-21T00:50:00;82.80;;;28.93;;
18376;SDS011;9315;52.624;13.544;2023-11-21T00:52:28;97.37;;;28.63;;
18376;SDS011;9315;52.624;13.544;2023-11-21T00:54:55;95.27;;;29.53;;
18376;SDS011;9315;52.624;13.544;2023-11-21T00:57:22;97.07;;;29.17;;
18376;SDS011;9315;52.624;13.544;2023-11-21T00:59:50;97.80;;;31.13;;
18376;SDS011;9315;52.624;13.544;2023-11-21T01:02:17;112.60;;;31.70;;
18376;SDS011;9315;52.624;13.544;2023-11-21T01:04:45;93.57;;;29.40;;
18376;SDS011;9315;52.624;13.544;2023-11-21T01:07:14;97.23;;;27.87;;
18376;SDS011;9315;52.624;13.544;2023-11-21T01:09:41;80.70;;;26.83;;
18376;SDS011;9315;52.624;13.544;2023-11-21T01:12:10;88.17;;;24.90;;
18376;SDS011;9315;52.624;13.544;2023-11-21T01:14:38;85.80;;;23.80;;
18376;SDS011;9315;52.624;13.544;2023-11-21T01:17:05;72.73;;;19.90;;
18376;SDS011;9315;52.624;13.544;2023-11-21T01:19:33;70.17;;;20.40;;
18376;SDS011;9315;52.624;13.544;2023-11-21T01:22:01;72.20;;;21.63;;
18376;SDS011;9315;52.624;13.544;2023-11-21T01:24:28;64.87;;;19.60;;
18376;SDS011;9315;52.624;13.544;2023-11-21T01:26:56;53.13;;;18.27;;
18376;SDS011;9315;52.624;13.544;2023-11-21T01:29:23;55.70;;;17.27;;
18376;SDS011;9315;52.624;13.544;2023-11-21T01:31:51;61.17;;;18.43;;
18376;SDS011;9315;52.624;13.544;2023-11-21T01:34:18;51.67;;;19.03;;
18376;SDS011;9315;52.624;13.544;2023-11-21T01:36:46;49.60;;;15.83;;
18376;SDS011;9315;52.624;13.544;2023-11-21T01:39:13;46.77;;;16.13;;
18376;SDS011;9315;52.624;13.544;2023-11-21T01:41:42;48.40;;;16.00;;
18376;SDS011;9315;52.624;13.544;2023-11-21T01:44:12;50.07;;;16.00;;
18376;SDS011;9315;52.624;13.544;2023-11-21T01:46:39;50.37;;;16.00;;
18376;SDS011;9315;52.624;13.544;2023-11-21T01:49:09;47.90;;;16.37;;
18376;SDS011;9315;52.624;13.544;2023-11-21T01:51:41;41.13;;;15.13;;
18376;SDS011;9315;52.624;13.544;2023-11-21T01:54:13;44.63;;;15.00;;
18376;SDS011;9315;52.624;13.544;2023-11-21T01:56:46;44.80;;;14.37;;
18376;SDS011;9315;52.624;13.544;2023-11-21T01:59:21;43.73;;;14.27;;
18376;SDS011;9315;52.624;13.544;2023-11-21T02:01:49;39.13;;;14.00;;
18376;SDS011;9315;52.624;13.544;2023-11-21T02:04:20;38.53;;;14.00;;
18376;SDS011;9315;52.624;13.544;2023-11-21T02:06:47;33.67;;;13.17;;
18376;SDS011;9315;52.624;13.544;2023-11-21T02:09:17;30.60;;;12.50;;
18376;SDS011;9315;52.624;13.544;2023-11-21T02:11:56;30.37;;;11.57;;
18376;SDS011;9315;52.624;13.544;2023-11-21T02:14:27;28.83;;;12.60;;
18376;SDS011;9315;52.624;13.544;2023-11-21T02:16:57;25.80;;;10.67;;
18376;SDS011;9315;52.624;13.544;2023-11-21T02:19:24;27.97;;;11.47;;
18376;SDS011;9315;52.624;13.544;2023-11-21T02:21:52;25.67;;;11.50;;
18376;SDS011;9315;52.624;13.544;2023-11-21T02:24:23;24.07;;;11.10;;
18376;SDS011;9315;52.624;13.544;2023-11-21T02:26:51;26.57;;;12.17;;
18376;SDS011;9315;52.624;13.544;2023-11-21T02:29:18;25.77;;;12.03;;
18376;SDS011;9315;52.624;13.544;2023-11-21T02:31:56;25.23;;;12.27;;
18376;SDS011;9315;52.624;13.544;2023-11-21T02:34:24;24.70;;;12.17;;
18376;SDS011;9315;52.624;13.544;2023-11-21T02:36:52;22.53;;;12.33;;
18376;SDS011;9315;52.624;13.544;2023-11-21T02:39:20;25.33;;;11.60;;
18376;SDS011;9315;52.624;13.544;2023-11-21T02:41:51;21.37;;;12.10;;
18376;SDS011;9315;52.624;13.544;2023-11-21T02:44:18;26.20;;;12.80;;
18376;SDS011;9315;52.624;13.544;2023-11-21T02:46:46;21.30;;;11.60;;
18376;SDS011;9315;52.624;13.544;2023-11-21T02:49:13;22.27;;;11.20;;
18376;SDS011;9315;52.624;13.544;2023-11-21T02:51:41;21.20;;;11.30;;
18376;SDS011;9315;52.624;13.544;2023-11-21T02:54:08;18.87;;;10.20;;
18376;SDS011;9315;52.624;13.544;2023-11-21T02:56:36;16.67;;;9.47;;
18376;SDS011;9315;52.624;13.544;2023-11-21T02:59:04;17.90;;;9.90;;
18376;SDS011;9315;52.624;13.544;2023-11-21T03:01:31;16.53;;;9.80;;
18376;SDS011;9315;52.624;13.544;2023-11-21T03:03:59;18.77;;;10.17;;
18376;SDS011;9315;52.624;13.544;2023-11-21T03:06:26;18.17;;;9.90;;
18376;SDS011;9315;52.624;13.544;2023-11-21T03:08:54;16.20;;;9.10;;
18376;SDS011;9315;52.624;13.544;2023-11-21T03:11:21;15.90;;;9.43;;
18376;SDS011;9315;52.624;13.544;2023-11-21T03:13:48;18.70;;;9.33;;
18376;SDS011;9315;52.624;13.544;2023-11-21T03:16:16;16.33;;;8.77;;
18376;SDS011;9315;52.624;13.544;2023-11-21T03:18:45;18.00;;;9.50;;
18376;SDS011;9315;52.624;13.544;2023-11-21T03:21:13;12.77;;;8.50;;
18376;SDS011;9315;52.624;13.544;2023-11-21T03:23:41;16.33;;;9.53;;
18376;SDS011;9315;52.624;13.544;2023-11-21T03:26:11;15.70;;;9.50;;
18376;SDS011;9315;52.624;13.544;2023-11-21T03:28:39;14.53;;;8.87;;
18376;SDS011;9315;52.624;13.544;2023-11-21T03:31:07;18.13;;;9.03;;
18376;SDS011;9315;52.624;13.544;2023-11-21T03:33:35;15.20;;;9.53;;
18376;SDS011;9315;52.624;13.544;2023-11-21T03:36:03;15.00;;;8.83;;
18376;SDS011;9315;52.624;13.544;2023-11-21T03:38:31;14.40;;;8.70;;
18376;SDS011;9315;52.624;13.544;2023-11-21T03:40:58;14.67;;;8.80;;
18376;SDS011;9315;52.624;13.544;2023-11-21T03:43:25;13.83;;;8.50;;
18376;SDS011;9315;52.624;13.544;2023-11-21T03:45:53;14.30;;;8.80;;
18376;SDS011;9315;52.624;13.544;2023-11-21T03:48:20;13.83;;;8.77;;
18376;SDS011;9315;52.624;13.544;2023-11-21T03:50:48;14.10;;;7.83;;
18376;SDS011;9315;52.624;13.544;2023-11-21T03:53:15;15.23;;;8.53;;
18376;SDS011;9315;52.624;13.544;2023-11-21T03:55:43;12.37;;;7.70;;
18376;SDS011;9315;52.624;13.544;2023-11-21T03:58:10;15.07;;;8.37;;
18376;SDS011;9315;52.624;13.544;2023-11-21T04:00:38;15.13;;;7.33;;
18376;SDS011;9315;52.624;13.544;2023-11-21T04:03:05;12.93;;;7.30;;
18376;SDS011;9315;52.624;13.544;2023-11-21T04:05:33;13.30;;;7.90;;
18376;SDS011;9315;52.624;13.544;2023-11-21T04:08:00;12.83;;;8.07;;
18376;SDS011;9315;52.624;13.544;2023-11-21T04:10:28;10.87;;;7.10;;
18376;SDS011;9315;52.624;13.544;2023-11-21T04:12:56;12.23;;;7.50;;
18376;SDS011;9315;52.624;13.544;2023-11-21T04:15:23;12.07;;;6.67;;
18376;SDS011;9315;52.624;13.544;2023-11-21T04:17:51;8.60;;;5.40;;
18376;SDS011;9315;52.624;13.544;2023-11-21T04:20:18;12.10;;;7.27;;
18376;SDS011;9315;52.624;13.544;2023-11-21T04:22:46;10.17;;;6.07;;
18376;SDS011;9315;52.624;13.544;2023-11-21T04:25:14;9.43;;;6.23;;
18376;SDS011;9315;52.624;13.544;2023-11-21T04:27:43;10.37;;;6.37;;
18376;SDS011;9315;52.624;13.544;2023-11-21T04:30:12;10.37;;;5.77;;
18376;SDS011;9315;52.624;13.544;2023-11-21T04:32:41;9.50;;;6.17;;
18376;SDS011;9315;52.624;13.544;2023-11-21T04:35:08;9.23;;;6.00;;
18376;SDS011;9315;52.624;13.544;2023-11-21T04:37:36;10.33;;;6.53;;
18376;SDS011;9315;52.624;13.544;2023-11-21T04:40:04;8.83;;;5.37;;
18376;SDS011;9315;52.624;13.544;2023-11-21T04:42:36;8.17;;;5.30;;
18376;SDS011;9315;52.624;13.544;2023-11-21T04:45:04;9.60;;;6.17;;
18376;SDS011;9315;52.624;13.544;2023-11-21T04:47:39;9.07;;;5.80;;
18376;SDS011;9315;52.624;13.544;2023-11-21T04:50:07;9.37;;;4.97;;
18376;SDS011;9315;52.624;13.544;2023-11-21T04:52:35;7.60;;;5.03;;
18376;SDS011;9315;52.624;13.544;2023-11-21T04:55:02;10.23;;;5.83;;
18376;SDS011;9315;52.624;13.544;2023-11-21T04:57:30;7.87;;;4.87;;
18376;SDS011;9315;52.624;13.544;2023-11-21T04:59:58;9.17;;;5.50;;
18376;SDS011;9315;52.624;13.544;2023-11-21T05:02:25;8.30;;;5.30;;
18376;SDS011;9315;52.624;13.544;2023-11-21T05:05:04;9.07;;;5.60;;
18376;SDS011;9315;52.624;13.544;2023-11-21T05:07:32;9.33;;;5.10;;
18376;SDS011;9315;52.624;13.544;2023-11-21T05:10:03;7.40;;;4.87;;
18376;SDS011;9315;52.624;13.544;2023-11-21T05:12:39;7.80;;;5.10;;
18376;SDS011;9315;52.624;13.544;2023-11-21T05:15:09;11.03;;;5.00;;
18376;SDS011;9315;52.624;13.544;2023-11-21T05:17:41;7.73;;;5.10;;
18376;SDS011;9315;52.624;13.544;2023-11-21T05:20:10;10.87;;;5.77;;
18376;SDS011;9315;52.624;13.544;2023-11-21T05:22:40;9.30;;;5.53;;
18376;SDS011;9315;52.624;13.544;2023-11-21T05:25:08;9.03;;;5.90;;
18376;SDS011;9315;52.624;13.544;2023-11-21T05:27:37;10.37;;;5.60;;
18376;SDS011;9315;52.624;13.544;2023-11-21T05:30:05;7.13;;;4.70;;
18376;SDS011;9315;52.624;13.544;2023-11-21T05:32:35;8.10;;;5.47;;
18376;SDS011;9315;52.624;13.544;2023-11-21T05:35:03;8.80;;;5.10;;
18376;SDS011;9315;52.624;13.544;2023-11-21T05:37:36;8.80;;;5.47;;
18376;SDS011;9315;52.624;13.544;2023-11-21T05:40:05;8.57;;;4.93;;
18376;SDS011;9315;52.624;13.544;2023-11-21T05:42:35;7.40;;;4.60;;
18376;SDS011;9315;52.624;13.544;2023-11-21T05:45:04;8.13;;;3.50;;
18376;SDS011;9315;52.624;13.544;2023-11-21T05:47:38;8.80;;;4.37;;
18376;SDS011;9315;52.624;13.544;2023-11-21T05:50:09;6.80;;;4.33;;
18376;SDS011;9315;52.624;13.544;2023-11-21T05:52:42;10.53;;;5.00;;
18376;SDS011;9315;52.624;13.544;2023-11-21T05:55:12;7.90;;;5.00;;
18376;SDS011;9315;52.624;13.544;2023-11-21T05:57:41;9.30;;;5.27;;
18376;SDS011;9315;52.624;13.544;2023-11-21T06:00:12;7.73;;;5.27;;
18376;SDS011;9315;52.624;13.544;2023-11-21T06:02:52;9.27;;;5.13;;
18376;SDS011;9315;52.624;13.544;2023-11-21T06:05:22;9.57;;;4.97;;
18376;SDS011;9315;52.624;13.544;2023-11-21T06:07:52;8.20;;;4.80;;
18376;SDS011;9315;52.624;13.544;2023-11-21T06:10:26;10.10;;;5.10;;
18376;SDS011;9315;52.624;13.544;2023-11-21T06:12:55;8.47;;;4.77;;
18376;SDS011;9315;52.624;13.544;2023-11-21T06:15:28;9.93;;;5.53;;
18376;SDS011;9315;52.624;13.544;2023-11-21T06:17:56;9.50;;;5.53;;
18376;SDS011;9315;52.624;13.544;2023-11-21T06:20:27;12.10;;;5.60;;
18376;SDS011;9315;52.624;13.544;2023-11-21T06:22:54;6.97;;;5.07;;
18376;SDS011;9315;52.624;13.544;2023-11-21T06:25:22;8.60;;;4.70;;
18376;SDS011;9315;52.624;13.544;2023-11-21T06:27:50;6.77;;;4.33;;
18376;SDS011;9315;52.624;13.544;2023-11-21T06:30:19;8.13;;;5.07;;
18376;SDS011;9315;52.624;13.544;2023-11-21T06:32:47;8.37;;;5.57;;
18376;SDS011;9315;52.624;13.544;2023-11-21T06:35:15;7.00;;;5.17;;
18376;SDS011;9315;52.624;13.544;2023-11-21T06:37:43;8.80;;;5.00;;
18376;SDS011;9315;52.624;13.544;2023-11-21T06:40:16;7.53;;;5.17;;
18376;SDS011;9315;52.624;13.544;2023-11-21T06:42:46;8.43;;;5.37;;
18376;SDS011;9315;52.624;13.544;2023-11-21T06:45:15;9.57;;;5.43;;
18376;SDS011;9315;52.624;13.544;2023-11-21T06:47:43;8.20;;;5.20;;
18376;SDS011;9315;52.624;13.544;2023-11-21T06:50:11;9.30;;;5.07;;
18376;SDS011;9315;52.624;13.544;2023-11-21T06:52:40;9.57;;;4.63;;
18376;SDS011;9315;52.624;13.544;2023-11-21T06:55:08;8.17;;;5.07;;
18376;SDS011;9315;52.624;13.544;2023-11-21T06:57:36;13.00;;;5.00;;
18376;SDS011;9315;52.624;13.544;2023-11-21T07:00:05;6.83;;;4.60;;
18376;SDS011;9315;52.624;13.544;2023-11-21T07:02:36;6.37;;;4.37;;
18376;SDS011;9315;52.624;13.544;2023-11-21T07:05:05;6.90;;;4.30;;
18376;SDS011;9315;52.624;13.544;2023-11-21T07:07:33;7.20;;;4.37;;
18376;SDS011;9315;52.624;13.544;2023-11-21T07:10:03;8.87;;;5.00;;
18376;SDS011;9315;52.624;13.544;2023-11-21T07:12:32;10.13;;;4.77;;
18376;SDS011;9315;52.624;13.544;2023-11-21T07:15:01;9.00;;;5.27;;
18376;SDS011;9315;52.624;13.544;2023-11-21T07:17:32;7.33;;;4.73;;
18376;SDS011;9315;52.624;13.544;2023-11-21T07:20:01;10.43;;;4.80;;
18376;SDS011;9315;52.624;13.544;2023-11-21T07:22:30;7.50;;;4.40;;
18376;SDS011;9315;52.624;13.544;2023-11-21T07:24:57;6.33;;;4.60;;
18376;SDS011;9315;52.624;13.544;2023-11-21T07:27:24;7.77;;;4.60;;
18376;SDS011;9315;52.624;13.544;2023-11-21T07:29:52;8.33;;;3.83;;
18376;SDS011;9315;52.624;13.544;2023-11-21T07:32:20;7.73;;;4.60;;
18376;SDS011;9315;52.624;13.544;2023-11-21T07:34:47;5.93;;;3.63;;
18376;SDS011;9315;52.624;13.544;2023-11-21T07:37:15;8.30;;;4.53;;
18376;SDS011;9315;52.624;13.544;2023-11-21T07:39:42;9.57;;;4.90;;
18376;SDS011;9315;52.624;13.544;2023-11-21T07:42:11;8.23;;;5.03;;
18376;SDS011;9315;52.624;13.544;2023-11-21T07:44:38;9.57;;;5.07;;
18376;SDS011;9315;52.624;13.544;2023-11-21T07:47:05;11.37;;;5.20;;
18376;SDS011;9315;52.624;13.544;2023-11-21T07:49:36;13.37;;;5.63;;
18376;SDS011;9315;52.624;13.544;2023-11-21T07:52:04;10.87;;;5.93;;
18376;SDS011;9315;52.624;13.544;2023-11-21T07:54:32;12.47;;;6.03;;
18376;SDS011;9315;52.624;13.544;2023-11-21T07:57:02;13.07;;;5.90;;
18376;SDS011;9315;52.624;13.544;2023-11-21T07:59:30;12.93;;;5.70;;
18376;SDS011;9315;52.624;13.544;2023-11-21T08:01:58;14.20;;;5.67;;
18376;SDS011;9315;52.624;13.544;2023-11-21T08:04:25;14.50;;;6.40;;
18376;SDS011;9315;52.624;13.544;2023-11-21T08:06:56;17.10;;;6.47;;
18376;SDS011;9315;52.624;13.544;2023-11-21T08:09:24;16.30;;;6.73;;
18376;SDS011;9315;52.624;13.544;2023-11-21T08:11:52;18.00;;;7.30;;
18376;SDS011;9315;52.624;13.544;2023-11-21T08:14:19;15.97;;;7.07;;
18376;SDS011;9315;52.624;13.544;2023-11-21T08:16:47;16.20;;;7.50;;
18376;SDS011;9315;52.624;13.544;2023-11-21T08:19:14;17.37;;;7.07;;
18376;SDS011;9315;52.624;13.544;2023-11-21T08:21:43;18.20;;;7.30;;
18376;SDS011;9315;52.624;13.544;2023-11-21T08:24:12;19.50;;;8.00;;
18376;SDS011;9315;52.624;13.544;2023-11-21T08:26:40;21.60;;;7.03;;
18376;SDS011;9315;52.624;13.544;2023-11-21T08:29:07;24.87;;;8.67;;
18376;SDS011;9315;52.624;13.544;2023-11-21T08:31:35;24.17;;;7.80;;
18376;SDS011;9315;52.624;13.544;2023-11-21T08:34:03;25.43;;;8.50;;
18376;SDS011;9315;52.624;13.544;2023-11-21T08:36:30;21.77;;;7.90;;
18376;SDS011;9315;52.624;13.544;2023-11-21T08:38:58;25.07;;;8.37;;
18376;SDS011;9315;52.624;13.544;2023-11-21T08:41:28;25.00;;;8.10;;
18376;SDS011;9315;52.624;13.544;2023-11-21T08:43:57;20.60;;;7.17;;
18376;SDS011;9315;52.624;13.544;2023-11-21T08:46:24;27.57;;;8.37;;
18376;SDS011;9315;52.624;13.544;2023-11-21T08:48:52;24.30;;;9.27;;
18376;SDS011;9315;52.624;13.544;2023-11-21T08:51:20;31.47;;;9.13;;
18376;SDS011;9315;52.624;13.544;2023-11-21T08:53:48;22.40;;;8.07;;
18376;SDS011;9315;52.624;13.544;2023-11-21T08:56:15;17.63;;;6.13;;
18376;SDS011;9315;52.624;13.544;2023-11-21T08:58:43;17.10;;;5.80;;
18376;SDS011;9315;52.624;13.544;2023-11-21T09:01:10;12.87;;;5.00;;
18376;SDS011;9315;52.624;13.544;2023-11-21T09:03:38;14.93;;;5.40;;
18376;SDS011;9315;52.624;13.544;2023-11-21T09:06:07;11.90;;;4.47;;
18376;SDS011;9315;52.624;13.544;2023-11-21T09:08:36;11.17;;;4.20;;
18376;SDS011;9315;52.624;13.544;2023-11-21T09:11:04;10.93;;;4.10;;
18376;SDS011;9315;52.624;13.544;2023-11-21T09:13:32;9.60;;;3.90;;
18376;SDS011;9315;52.624;13.544;2023-11-21T09:16:00;9.33;;;4.10;;
18376;SDS011;9315;52.624;13.544;2023-11-21T09:18:27;7.30;;;3.17;;
18376;SDS011;9315;52.624;13.544;2023-11-21T09:20:55;8.97;;;3.20;;
18376;SDS011;9315;52.624;13.544;2023-11-21T09:23:24;6.27;;;2.80;;
18376;SDS011;9315;52.624;13.544;2023-11-21T09:25:51;5.90;;;2.40;;
18376;SDS011;9315;52.624;13.544;2023-11-21T09:28:23;2.40;;;1.03;;
18376;SDS011;9315;52.624;13.544;2023-11-21T09:30:51;3.33;;;1.97;;
18376;SDS011;9315;52.624;13.544;2023-11-21T09:33:18;3.83;;;2.07;;
18376;SDS011;9315;52.624;13.544;2023-11-21T09:35:47;4.53;;;2.03;;
18376;SDS011;9315;52.624;13.544;2023-11-21T09:38:16;3.00;;;2.00;;
18376;SDS011;9315;52.624;13.544;2023-11-21T09:40:43;3.20;;;1.80;;
18376;SDS011;9315;52.624;13.544;2023-11-21T09:43:15;2.70;;;1.63;;
18376;SDS011;9315;52.624;13.544;2023-11-21T09:45:45;2.47;;;1.67;;
18376;SDS011;9315;52.624;13.544;2023-11-21T09:48:20;2.27;;;1.80;;
18376;SDS011;9315;52.624;13.544;2023-11-21T09:50:48;2.53;;;1.60;;
18376;SDS011;9315;52.624;13.544;2023-11-21T09:53:20;2.77;;;2.00;;
18376;SDS011;9315;52.624;13.544;2023-11-21T09:55:51;3.50;;;1.83;;
18376;SDS011;9315;52.624;13.544;2023-11-21T09:58:20;3.33;;;2.20;;
18376;SDS011;9315;52.624;13.544;2023-11-21T10:00:53;3.03;;;2.27;;
18376;SDS011;9315;52.624;13.544;2023-11-21T10:03:24;4.10;;;1.80;;
18376;SDS011;9315;52.624;13.544;2023-11-21T10:05:53;3.07;;;2.00;;
18376;SDS011;9315;52.624;13.544;2023-11-21T10:08:23;5.57;;;2.27;;
18376;SDS011;9315;52.624;13.544;2023-11-21T10:11:11;2.73;;;1.90;;
18376;SDS011;9315;52.624;13.544;2023-11-21T10:13:41;3.40;;;1.90;;
18376;SDS011;9315;52.624;13.544;2023-11-21T10:16:14;5.83;;;2.27;;
18376;SDS011;9315;52.624;13.544;2023-11-21T10:18:45;4.83;;;2.17;;
18376;SDS011;9315;52.624;13.544;2023-11-21T10:21:13;8.00;;;2.30;;
18376;SDS011;9315;52.624;13.544;2023-11-21T10:23:41;2.30;;;1.67;;
18376;SDS011;9315;52.624;13.544;2023-11-21T10:26:11;4.23;;;2.50;;
18376;SDS011;9315;52.624;13.544;2023-11-21T10:28:59;4.43;;;2.07;;
18376;SDS011;9315;52.624;13.544;2023-11-21T10:31:32;5.50;;;2.63;;
18376;SDS011;9315;52.624;13.544;2023-11-21T10:34:15;3.80;;;2.67;;
18376;SDS011;9315;52.624;13.544;2023-11-21T10:36:46;3.40;;;2.53;;
18376;SDS011;9315;52.624;13.544;2023-11-21T10:39:18;4.43;;;2.83;;
18376;SDS011;9315;52.624;13.544;2023-11-21T10:41:50;4.37;;;2.67;;
18376;SDS011;9315;52.624;13.544;2023-11-21T10:44:18;7.90;;;2.90;;
18376;SDS011;9315;52.624;13.544;2023-11-21T10:46:53;5.53;;;3.17;;
18376;SDS011;9315;52.624;13.544;2023-11-21T10:49:26;4.33;;;2.97;;
18376;SDS011;9315;52.624;13.544;2023-11-21T10:51:56;9.07;;;3.00;;
18376;SDS011;9315;52.624;13.544;2023-11-21T10:54:24;3.80;;;2.73;;
18376;SDS011;9315;52.624;13.544;2023-11-21T10:56:55;3.73;;;2.43;;
18376;SDS011;9315;52.624;13.544;2023-11-21T10:59:29;3.63;;;2.73;;
18376;SDS011;9315;52.624;13.544;2023-11-21T11:01:59;3.97;;;2.80;;
18376;SDS011;9315;52.624;13.544;2023-11-21T11:04:48;5.43;;;3.33;;
18376;SDS011;9315;52.624;13.544;2023-11-21T11:07:16;2.67;;;2.00;;
18376;SDS011;9315;52.624;13.544;2023-11-21T11:09:44;5.10;;;3.40;;
18376;SDS011;9315;52.624;13.544;2023-11-21T11:12:13;4.17;;;2.23;;
18376;SDS011;9315;52.624;13.544;2023-11-21T11:14:41;4.07;;;2.40;;
18376;SDS011;9315;52.624;13.544;2023-11-21T11:17:10;3.63;;;2.63;;
18376;SDS011;9315;52.624;13.544;2023-11-21T11:19:40;3.57;;;2.50;;
18376;SDS011;9315;52.624;13.544;2023-11-21T11:28:17;3.50;;;2.43;;
18376;SDS011;9315;52.624;13.544;2023-11-21T11:34:29;2.70;;;2.40;;
18376;SDS011;9315;52.624;13.544;2023-11-21T11:37:13;3.93;;;2.20;;
18376;SDS011;9315;52.624;13.544;2023-11-21T11:39:42;7.10;;;2.67;;
18376;SDS011;9315;52.624;13.544;2023-11-21T11:42:14;3.20;;;2.30;;
18376;SDS011;9315;52.624;13.544;2023-11-21T11:47:22;5.07;;;2.27;;
18376;SDS011;9315;52.624;13.544;2023-11-21T11:50:10;4.13;;;2.77;;
18376;SDS011;9315;52.624;13.544;2023-11-21T11:52:49;11.60;;;6.83;;
18376;SDS011;9315;52.624;13.544;2023-11-21T11:55:19;4.50;;;2.63;;
18376;SDS011;9315;52.624;13.544;2023-11-21T11:57:51;2.90;;;2.30;;
18376;SDS011;9315;52.624;13.544;2023-11-21T12:02:56;7.93;;;7.13;;
18376;SDS011;9315;52.624;13.544;2023-11-21T12:05:33;6.40;;;5.80;;
18376;SDS011;9315;52.624;13.544;2023-11-21T12:08:06;2.80;;;2.10;;
18376;SDS011;9315;52.624;13.544;2023-11-21T12:10:35;3.30;;;2.10;;
18376;SDS011;9315;52.624;13.544;2023-11-21T12:13:09;3.07;;;2.20;;
18376;SDS011;9315;52.624;13.544;2023-11-21T12:15:39;2.47;;;2.17;;
18376;SDS011;9315;52.624;13.544;2023-11-21T12:18:08;4.00;;;2.03;;
18376;SDS011;9315;52.624;13.544;2023-11-21T12:20:36;3.50;;;2.57;;
18376;SDS011;9315;52.624;13.544;2023-11-21T12:23:06;3.47;;;2.27;;
18376;SDS011;9315;52.624;13.544;2023-11-21T12:25:36;4.77;;;3.13;;
18376;SDS011;9315;52.624;13.544;2023-11-21T12:28:09;5.17;;;3.20;;
18376;SDS011;9315;52.624;13.544;2023-11-21T12:30:37;5.37;;;2.90;;
18376;SDS011;9315;52.624;13.544;2023-11-21T12:33:05;2.97;;;2.60;;
18376;SDS011;9315;52.624;13.544;2023-11-21T12:35:37;5.43;;;3.50;;
18376;SDS011;9315;52.624;13.544;2023-11-21T12:38:05;4.90;;;3.23;;
18376;SDS011;9315;52.624;13.544;2023-11-21T12:40:33;4.50;;;2.47;;
18376;SDS011;9315;52.624;13.544;2023-11-21T12:43:01;3.57;;;2.40;;
18376;SDS011;9315;52.624;13.544;2023-11-21T12:45:31;4.17;;;2.70;;
18376;SDS011;9315;52.624;13.544;2023-11-21T12:48:00;4.60;;;2.53;;
18376;SDS011;9315;52.624;13.544;2023-11-21T12:50:38;6.10;;;3.40;;
18376;SDS011;9315;52.624;13.544;2023-11-21T12:53:07;2.87;;;2.43;;
18376;SDS011;9315;52.624;13.544;2023-11-21T12:55:43;5.00;;;3.03;;
18376;SDS011;9315;52.624;13.544;2023-11-21T12:58:17;35.97;;;25.37;;
18376;SDS011;9315;52.624;13.544;2023-11-21T13:00:47;11.73;;;7.70;;
18376;SDS011;9315;52.624;13.544;2023-11-21T13:03:16;6.77;;;4.20;;
18376;SDS011;9315;52.624;13.544;2023-11-21T13:05:47;10.53;;;7.20;;
18376;SDS011;9315;52.624;13.544;2023-11-21T13:08:21;12.67;;;8.40;;
18376;SDS011;9315;52.624;13.544;2023-11-21T13:10:52;6.00;;;4.13;;
18376;SDS011;9315;52.624;13.544;2023-11-21T13:13:24;10.60;;;4.77;;
18376;SDS011;9315;52.624;13.544;2023-11-21T13:15:56;13.47;;;5.47;;
18376;SDS011;9315;52.624;13.544;2023-11-21T13:18:32;7.97;;;4.83;;
18376;SDS011;9315;52.624;13.544;2023-11-21T13:21:04;7.93;;;4.90;;
18376;SDS011;9315;52.624;13.544;2023-11-21T13:23:42;11.90;;;4.83;;
18376;SDS011;9315;52.624;13.544;2023-11-21T13:26:12;10.10;;;5.30;;
18376;SDS011;9315;52.624;13.544;2023-11-21T13:28:42;10.90;;;5.33;;
18376;SDS011;9315;52.624;13.544;2023-11-21T13:31:14;7.40;;;4.87;;
18376;SDS011;9315;52.624;13.544;2023-11-21T13:33:49;10.30;;;5.30;;
18376;SDS011;9315;52.624;13.544;2023-11-21T13:36:25;11.20;;;5.27;;
18376;SDS011;9315;52.624;13.544;2023-11-21T13:38:57;11.40;;;6.10;;
18376;SDS011;9315;52.624;13.544;2023-11-21T13:41:25;11.20;;;6.73;;
18376;SDS011;9315;52.624;13.544;2023-11-21T13:43:58;10.97;;;6.87;;
18376;SDS011;9315;52.624;13.544;2023-11-21T13:46:43;10.93;;;7.07;;
18376;SDS011;9315;52.624;13.544;2023-11-21T13:49:12;12.73;;;7.70;;
18376;SDS011;9315;52.624;13.544;2023-11-21T13:51:40;16.27;;;9.30;;
18376;SDS011;9315;52.624;13.544;2023-11-21T13:54:11;16.53;;;8.97;;
18376;SDS011;9315;52.624;13.544;2023-11-21T13:56:41;15.67;;;9.90;;
18376;SDS011;9315;52.624;13.544;2023-11-21T13:59:11;17.23;;;10.20;;
18376;SDS011;9315;52.624;13.544;2023-11-21T14:01:50;16.87;;;10.63;;
18376;SDS011;9315;52.624;13.544;2023-11-21T14:04:26;24.27;;;11.67;;
18376;SDS011;9315;52.624;13.544;2023-11-21T14:06:57;21.70;;;10.87;;
18376;SDS011;9315;52.624;13.544;2023-11-21T14:09:27;22.30;;;12.27;;
18376;SDS011;9315;52.624;13.544;2023-11-21T14:12:10;21.33;;;13.57;;
18376;SDS011;9315;52.624;13.544;2023-11-21T14:14:42;23.30;;;13.17;;
18376;SDS011;9315;52.624;13.544;2023-11-21T14:17:11;23.90;;;13.67;;
18376;SDS011;9315;52.624;13.544;2023-11-21T14:19:39;23.40;;;13.37;;
18376;SDS011;9315;52.624;13.544;2023-11-21T14:22:10;22.93;;;14.17;;
18376;SDS011;9315;52.624;13.544;2023-11-21T14:24:39;24.57;;;13.97;;
18376;SDS011;9315;52.624;13.544;2023-11-21T14:27:13;23.00;;;13.60;;
18376;SDS011;9315;52.624;13.544;2023-11-21T14:29:42;21.43;;;13.60;;
18376;SDS011;9315;52.624;13.544;2023-11-21T14:32:11;20.33;;;12.33;;
18376;SDS011;9315;52.624;13.544;2023-11-21T14:34:41;21.97;;;13.47;;
18376;SDS011;9315;52.624;13.544;2023-11-21T14:37:12;18.43;;;10.67;;
18376;SDS011;9315;52.624;13.544;2023-11-21T14:39:40;17.20;;;10.00;;
18376;SDS011;9315;52.624;13.544;2023-11-21T14:42:11;20.20;;;12.47;;
18376;SDS011;9315;52.624;13.544;2023-11-21T14:44:42;16.97;;;10.33;;
18376;SDS011;9315;52.624;13.544;2023-11-21T14:47:32;20.30;;;11.77;;
18376;SDS011;9315;52.624;13.544;2023-11-21T14:50:05;19.03;;;10.83;;
18376;SDS011;9315;52.624;13.544;2023-11-21T14:52:56;17.53;;;10.20;;
18376;SDS011;9315;52.624;13.544;2023-11-21T14:55:26;15.67;;;9.23;;
18376;SDS011;9315;52.624;13.544;2023-11-21T14:57:58;22.93;;;10.87;;
18376;SDS011;9315;52.624;13.544;2023-11-21T15:00:30;17.83;;;11.07;;
18376;SDS011;9315;52.624;13.544;2023-11-21T15:03:01;18.77;;;10.53;;
18376;SDS011;9315;52.624;13.544;2023-11-21T15:05:31;19.30;;;10.67;;